sensor_id;sensor_type;location;lat;lon;timestamp;P1;durP1;ratioP1;P2;durP2;ratioP2
74328;SDS011;62745;51.060;13.786;2023-06-14T00:01:00;5.00;;;2.45;;
74328;SDS011;62745;51.060;13.786;2023-06-14T00:03:28;6.00;;;2.67;;
74328;SDS011;62745;51.060;13.786;2023-06-14T00:05:54;4.95;;;2.40;;
74328;SDS011;62745;51.060;13.786;2023-06-14T00:08:19;4.65;;;2.17;;
74328;SDS011;62745;51.060;13.786;2023-06-14T00:10:46;3.88;;;1.92;;
74328;SDS011;62745;51.060;13.786;2023-06-14T00:13:11;6.20;;;2.17;;
74328;SDS011;62745;51.060;13.786;2023-06-14T00:15:37;4.10;;;2.00;;
74328;SDS011;62745;51.060;13.786;2023-06-14T00:18:02;4.93;;;2.47;;
74328;SDS011;62745;51.060;13.786;2023-06-14T00:20:29;4.10;;;2.22;;
74328;SDS011;62745;51.060;13.786;2023-06-14T00:23:01;5.03;;;2.00;;
74328;SDS011;62745;51.060;13.786;2023-06-14T00:25:26;4.60;;;2.33;;
74328;SDS011;62745;51.060;13.786;2023-06-14T00:27:52;4.43;;;2.60;;
74328;SDS011;62745;51.060;13.786;2023-06-14T00:30:19;3.72;;;1.98;;
74328;SDS011;62745;51.060;13.786;2023-06-14T00:32:44;4.85;;;2.28;;
74328;SDS011;62745;51.060;13.786;2023-06-14T00:35:10;8.95;;;2.22;;
74328;SDS011;62745;51.060;13.786;2023-06-14T00:37:36;5.65;;;2.63;;
74328;SDS011;62745;51.060;13.786;2023-06-14T00:40:01;6.15;;;2.90;;
74328;SDS011;62745;51.060;13.786;2023-06-14T00:42:27;7.60;;;2.13;;
74328;SDS011;62745;51.060;13.786;2023-06-14T00:44:53;4.60;;;2.10;;
74328;SDS011;62745;51.060;13.786;2023-06-14T00:47:19;6.78;;;2.42;;
74328;SDS011;62745;51.060;13.786;2023-06-14T00:49:45;5.53;;;2.40;;
74328;SDS011;62745;51.060;13.786;2023-06-14T00:52:12;3.70;;;2.17;;
74328;SDS011;62745;51.060;13.786;2023-06-14T00:54:39;5.10;;;2.20;;
74328;SDS011;62745;51.060;13.786;2023-06-14T00:57:06;5.47;;;2.83;;
74328;SDS011;62745;51.060;13.786;2023-06-14T00:59:32;5.38;;;2.30;;
74328;SDS011;62745;51.060;13.786;2023-06-14T01:01:58;5.38;;;2.47;;
74328;SDS011;62745;51.060;13.786;2023-06-14T01:04:23;5.73;;;2.30;;
74328;SDS011;62745;51.060;13.786;2023-06-14T01:06:59;4.57;;;2.60;;
74328;SDS011;62745;51.060;13.786;2023-06-14T01:09:42;5.82;;;2.45;;
74328;SDS011;62745;51.060;13.786;2023-06-14T01:12:36;5.88;;;2.95;;
74328;SDS011;62745;51.060;13.786;2023-06-14T01:15:09;4.40;;;2.90;;
74328;SDS011;62745;51.060;13.786;2023-06-14T01:17:35;5.70;;;2.75;;
74328;SDS011;62745;51.060;13.786;2023-06-14T01:20:06;4.38;;;2.85;;
74328;SDS011;62745;51.060;13.786;2023-06-14T01:22:35;4.85;;;2.70;;
74328;SDS011;62745;51.060;13.786;2023-06-14T01:25:01;5.00;;;2.90;;
74328;SDS011;62745;51.060;13.786;2023-06-14T01:27:26;4.53;;;2.50;;
74328;SDS011;62745;51.060;13.786;2023-06-14T01:29:54;5.10;;;2.03;;
74328;SDS011;62745;51.060;13.786;2023-06-14T01:32:22;5.65;;;2.75;;
74328;SDS011;62745;51.060;13.786;2023-06-14T01:34:51;8.32;;;2.30;;
74328;SDS011;62745;51.060;13.786;2023-06-14T01:37:16;5.20;;;2.70;;
74328;SDS011;62745;51.060;13.786;2023-06-14T01:39:42;5.88;;;2.42;;
74328;SDS011;62745;51.060;13.786;2023-06-14T01:42:08;4.63;;;2.60;;
74328;SDS011;62745;51.060;13.786;2023-06-14T01:44:36;6.35;;;2.75;;
74328;SDS011;62745;51.060;13.786;2023-06-14T01:47:02;5.00;;;2.20;;
74328;SDS011;62745;51.060;13.786;2023-06-14T01:49:27;3.90;;;2.40;;
74328;SDS011;62745;51.060;13.786;2023-06-14T01:51:53;4.97;;;2.80;;
74328;SDS011;62745;51.060;13.786;2023-06-14T01:54:18;4.60;;;2.30;;
74328;SDS011;62745;51.060;13.786;2023-06-14T01:56:43;4.82;;;2.92;;
74328;SDS011;62745;51.060;13.786;2023-06-14T01:59:08;6.57;;;2.93;;
74328;SDS011;62745;51.060;13.786;2023-06-14T02:01:34;6.00;;;2.57;;
74328;SDS011;62745;51.060;13.786;2023-06-14T02:03:59;4.95;;;2.30;;
74328;SDS011;62745;51.060;13.786;2023-06-14T02:06:26;5.53;;;2.90;;
74328;SDS011;62745;51.060;13.786;2023-06-14T02:08:51;4.93;;;2.60;;
74328;SDS011;62745;51.060;13.786;2023-06-14T02:11:17;5.27;;;2.80;;
74328;SDS011;62745;51.060;13.786;2023-06-14T02:13:42;6.05;;;2.28;;
74328;SDS011;62745;51.060;13.786;2023-06-14T02:16:07;6.17;;;3.03;;
74328;SDS011;62745;51.060;13.786;2023-06-14T02:18:32;5.17;;;3.03;;
74328;SDS011;62745;51.060;13.786;2023-06-14T02:20:58;5.40;;;2.83;;
74328;SDS011;62745;51.060;13.786;2023-06-14T02:23:23;4.63;;;2.83;;
74328;SDS011;62745;51.060;13.786;2023-06-14T02:25:48;6.93;;;2.77;;
74328;SDS011;62745;51.060;13.786;2023-06-14T02:28:13;6.10;;;2.27;;
74328;SDS011;62745;51.060;13.786;2023-06-14T02:30:39;5.83;;;2.50;;
74328;SDS011;62745;51.060;13.786;2023-06-14T02:33:05;5.78;;;2.40;;
74328;SDS011;62745;51.060;13.786;2023-06-14T02:35:31;5.60;;;2.83;;
74328;SDS011;62745;51.060;13.786;2023-06-14T02:37:56;5.07;;;3.30;;
74328;SDS011;62745;51.060;13.786;2023-06-14T02:40:22;5.80;;;3.63;;
74328;SDS011;62745;51.060;13.786;2023-06-14T02:42:47;5.18;;;2.53;;
74328;SDS011;62745;51.060;13.786;2023-06-14T02:45:13;4.97;;;2.70;;
74328;SDS011;62745;51.060;13.786;2023-06-14T02:47:38;5.70;;;2.83;;
74328;SDS011;62745;51.060;13.786;2023-06-14T02:50:03;7.45;;;2.70;;
74328;SDS011;62745;51.060;13.786;2023-06-14T02:52:29;7.10;;;3.15;;
74328;SDS011;62745;51.060;13.786;2023-06-14T02:54:54;5.70;;;2.90;;
74328;SDS011;62745;51.060;13.786;2023-06-14T02:57:20;6.30;;;3.03;;
74328;SDS011;62745;51.060;13.786;2023-06-14T02:59:47;6.63;;;3.53;;
74328;SDS011;62745;51.060;13.786;2023-06-14T03:02:12;7.23;;;3.27;;
74328;SDS011;62745;51.060;13.786;2023-06-14T03:04:37;6.05;;;3.08;;
74328;SDS011;62745;51.060;13.786;2023-06-14T03:07:03;6.20;;;3.58;;
74328;SDS011;62745;51.060;13.786;2023-06-14T03:09:34;5.18;;;3.00;;
74328;SDS011;62745;51.060;13.786;2023-06-14T03:12:01;5.47;;;3.17;;
74328;SDS011;62745;51.060;13.786;2023-06-14T03:14:27;8.48;;;3.15;;
74328;SDS011;62745;51.060;13.786;2023-06-14T03:16:54;6.13;;;3.00;;
74328;SDS011;62745;51.060;13.786;2023-06-14T03:19:21;5.85;;;2.97;;
74328;SDS011;62745;51.060;13.786;2023-06-14T03:21:47;6.30;;;2.92;;
74328;SDS011;62745;51.060;13.786;2023-06-14T03:24:12;8.15;;;2.70;;
74328;SDS011;62745;51.060;13.786;2023-06-14T03:26:37;5.40;;;2.80;;
74328;SDS011;62745;51.060;13.786;2023-06-14T03:29:03;6.27;;;3.10;;
74328;SDS011;62745;51.060;13.786;2023-06-14T03:31:28;8.93;;;3.13;;
74328;SDS011;62745;51.060;13.786;2023-06-14T03:33:57;5.90;;;3.13;;
74328;SDS011;62745;51.060;13.786;2023-06-14T03:36:23;6.70;;;4.20;;
74328;SDS011;62745;51.060;13.786;2023-06-14T03:38:48;5.70;;;3.60;;
74328;SDS011;62745;51.060;13.786;2023-06-14T03:41:13;6.27;;;3.63;;
74328;SDS011;62745;51.060;13.786;2023-06-14T03:43:38;5.77;;;3.70;;
74328;SDS011;62745;51.060;13.786;2023-06-14T03:46:04;6.13;;;3.38;;
74328;SDS011;62745;51.060;13.786;2023-06-14T03:48:29;5.87;;;2.77;;
74328;SDS011;62745;51.060;13.786;2023-06-14T03:50:54;6.32;;;3.05;;
74328;SDS011;62745;51.060;13.786;2023-06-14T03:53:21;5.68;;;3.50;;
74328;SDS011;62745;51.060;13.786;2023-06-14T03:55:48;5.97;;;3.30;;
74328;SDS011;62745;51.060;13.786;2023-06-14T03:58:14;7.93;;;3.72;;
74328;SDS011;62745;51.060;13.786;2023-06-14T04:00:40;6.57;;;2.80;;
74328;SDS011;62745;51.060;13.786;2023-06-14T04:03:05;9.87;;;3.90;;
74328;SDS011;62745;51.060;13.786;2023-06-14T04:05:30;5.80;;;3.60;;
74328;SDS011;62745;51.060;13.786;2023-06-14T04:07:56;4.70;;;2.80;;
74328;SDS011;62745;51.060;13.786;2023-06-14T04:10:22;6.20;;;3.30;;
74328;SDS011;62745;51.060;13.786;2023-06-14T04:12:47;6.45;;;3.53;;
74328;SDS011;62745;51.060;13.786;2023-06-14T04:15:13;5.82;;;3.15;;
74328;SDS011;62745;51.060;13.786;2023-06-14T04:17:38;6.78;;;3.70;;
74328;SDS011;62745;51.060;13.786;2023-06-14T04:20:04;9.25;;;3.45;;
74328;SDS011;62745;51.060;13.786;2023-06-14T04:22:31;7.22;;;3.60;;
74328;SDS011;62745;51.060;13.786;2023-06-14T04:24:56;8.20;;;3.72;;
74328;SDS011;62745;51.060;13.786;2023-06-14T04:27:22;6.95;;;3.95;;
74328;SDS011;62745;51.060;13.786;2023-06-14T04:29:53;8.43;;;3.50;;
74328;SDS011;62745;51.060;13.786;2023-06-14T04:32:25;8.00;;;3.80;;
74328;SDS011;62745;51.060;13.786;2023-06-14T04:34:53;6.32;;;4.00;;
74328;SDS011;62745;51.060;13.786;2023-06-14T04:37:19;6.50;;;3.45;;
74328;SDS011;62745;51.060;13.786;2023-06-14T04:39:46;6.10;;;3.30;;
74328;SDS011;62745;51.060;13.786;2023-06-14T04:42:12;5.65;;;3.70;;
74328;SDS011;62745;51.060;13.786;2023-06-14T04:44:40;5.65;;;3.58;;
74328;SDS011;62745;51.060;13.786;2023-06-14T04:47:06;6.78;;;4.03;;
74328;SDS011;62745;51.060;13.786;2023-06-14T04:49:31;6.55;;;3.42;;
74328;SDS011;62745;51.060;13.786;2023-06-14T04:51:57;5.90;;;3.30;;
74328;SDS011;62745;51.060;13.786;2023-06-14T04:54:24;6.65;;;4.03;;
74328;SDS011;62745;51.060;13.786;2023-06-14T04:56:52;5.78;;;3.40;;
74328;SDS011;62745;51.060;13.786;2023-06-14T04:59:20;6.32;;;3.35;;
74328;SDS011;62745;51.060;13.786;2023-06-14T05:01:47;6.20;;;3.63;;
74328;SDS011;62745;51.060;13.786;2023-06-14T05:04:14;5.68;;;3.63;;
74328;SDS011;62745;51.060;13.786;2023-06-14T05:06:42;5.70;;;3.55;;
74328;SDS011;62745;51.060;13.786;2023-06-14T05:09:09;5.85;;;3.88;;
74328;SDS011;62745;51.060;13.786;2023-06-14T05:11:35;6.65;;;4.13;;
74328;SDS011;62745;51.060;13.786;2023-06-14T05:14:00;5.30;;;3.33;;
74328;SDS011;62745;51.060;13.786;2023-06-14T05:16:26;6.28;;;4.15;;
74328;SDS011;62745;51.060;13.786;2023-06-14T05:18:52;6.88;;;4.03;;
74328;SDS011;62745;51.060;13.786;2023-06-14T05:21:18;6.38;;;3.80;;
74328;SDS011;62745;51.060;13.786;2023-06-14T05:23:44;11.27;;;4.72;;
74328;SDS011;62745;51.060;13.786;2023-06-14T05:26:10;6.40;;;3.42;;
74328;SDS011;62745;51.060;13.786;2023-06-14T05:28:35;13.32;;;4.63;;
74328;SDS011;62745;51.060;13.786;2023-06-14T05:31:01;6.35;;;3.80;;
74328;SDS011;62745;51.060;13.786;2023-06-14T05:33:26;6.68;;;3.55;;
74328;SDS011;62745;51.060;13.786;2023-06-14T05:35:52;8.03;;;4.00;;
74328;SDS011;62745;51.060;13.786;2023-06-14T05:38:17;8.73;;;3.17;;
74328;SDS011;62745;51.060;13.786;2023-06-14T05:40:42;8.40;;;4.37;;
74328;SDS011;62745;51.060;13.786;2023-06-14T05:43:07;8.97;;;3.63;;
74328;SDS011;62745;51.060;13.786;2023-06-14T05:45:33;10.90;;;4.13;;
74328;SDS011;62745;51.060;13.786;2023-06-14T05:47:58;6.32;;;3.70;;
74328;SDS011;62745;51.060;13.786;2023-06-14T05:50:23;6.03;;;4.10;;
74328;SDS011;62745;51.060;13.786;2023-06-14T05:52:48;6.57;;;3.77;;
74328;SDS011;62745;51.060;13.786;2023-06-14T05:55:15;6.57;;;3.80;;
74328;SDS011;62745;51.060;13.786;2023-06-14T05:57:41;4.85;;;3.30;;
74328;SDS011;62745;51.060;13.786;2023-06-14T06:00:08;5.80;;;3.60;;
74328;SDS011;62745;51.060;13.786;2023-06-14T06:02:35;6.53;;;4.10;;
74328;SDS011;62745;51.060;13.786;2023-06-14T06:05:01;7.07;;;3.20;;
74328;SDS011;62745;51.060;13.786;2023-06-14T06:07:27;6.65;;;3.65;;
74328;SDS011;62745;51.060;13.786;2023-06-14T06:09:52;8.57;;;4.03;;
74328;SDS011;62745;51.060;13.786;2023-06-14T06:12:17;6.07;;;3.77;;
74328;SDS011;62745;51.060;13.786;2023-06-14T06:14:42;6.73;;;3.50;;
74328;SDS011;62745;51.060;13.786;2023-06-14T06:17:08;7.73;;;3.87;;
74328;SDS011;62745;51.060;13.786;2023-06-14T06:19:33;6.03;;;4.07;;
74328;SDS011;62745;51.060;13.786;2023-06-14T06:21:58;6.67;;;4.13;;
74328;SDS011;62745;51.060;13.786;2023-06-14T06:24:23;6.53;;;3.93;;
74328;SDS011;62745;51.060;13.786;2023-06-14T06:26:49;5.90;;;3.75;;
74328;SDS011;62745;51.060;13.786;2023-06-14T06:29:14;6.32;;;4.40;;
74328;SDS011;62745;51.060;13.786;2023-06-14T06:31:40;7.30;;;3.58;;
74328;SDS011;62745;51.060;13.786;2023-06-14T06:34:05;6.83;;;3.30;;
74328;SDS011;62745;51.060;13.786;2023-06-14T06:36:30;6.67;;;4.07;;
74328;SDS011;62745;51.060;13.786;2023-06-14T06:38:55;5.78;;;4.00;;
74328;SDS011;62745;51.060;13.786;2023-06-14T06:41:21;9.17;;;4.30;;
74328;SDS011;62745;51.060;13.786;2023-06-14T06:43:46;6.70;;;4.05;;
74328;SDS011;62745;51.060;13.786;2023-06-14T06:46:11;6.17;;;3.60;;
74328;SDS011;62745;51.060;13.786;2023-06-14T06:48:37;7.63;;;3.80;;
74328;SDS011;62745;51.060;13.786;2023-06-14T06:51:02;6.90;;;3.63;;
74328;SDS011;62745;51.060;13.786;2023-06-14T06:53:28;9.87;;;3.60;;
74328;SDS011;62745;51.060;13.786;2023-06-14T06:55:53;6.07;;;4.03;;
74328;SDS011;62745;51.060;13.786;2023-06-14T06:58:18;7.17;;;4.00;;
74328;SDS011;62745;51.060;13.786;2023-06-14T07:00:44;7.03;;;3.65;;
74328;SDS011;62745;51.060;13.786;2023-06-14T07:03:09;6.75;;;3.97;;
74328;SDS011;62745;51.060;13.786;2023-06-14T07:05:35;5.18;;;3.63;;
74328;SDS011;62745;51.060;13.786;2023-06-14T07:08:00;5.23;;;3.50;;
74328;SDS011;62745;51.060;13.786;2023-06-14T07:10:25;6.33;;;3.83;;
74328;SDS011;62745;51.060;13.786;2023-06-14T07:12:51;9.55;;;3.85;;
74328;SDS011;62745;51.060;13.786;2023-06-14T07:15:16;5.63;;;3.10;;
74328;SDS011;62745;51.060;13.786;2023-06-14T07:17:41;5.28;;;3.28;;
74328;SDS011;62745;51.060;13.786;2023-06-14T07:20:07;5.85;;;3.38;;
74328;SDS011;62745;51.060;13.786;2023-06-14T07:22:36;7.28;;;3.78;;
74328;SDS011;62745;51.060;13.786;2023-06-14T07:25:01;6.45;;;3.15;;
74328;SDS011;62745;51.060;13.786;2023-06-14T07:27:27;5.10;;;3.15;;
74328;SDS011;62745;51.060;13.786;2023-06-14T07:29:53;4.70;;;2.72;;
74328;SDS011;62745;51.060;13.786;2023-06-14T07:32:18;5.73;;;2.97;;
74328;SDS011;62745;51.060;13.786;2023-06-14T07:34:43;7.20;;;3.08;;
74328;SDS011;62745;51.060;13.786;2023-06-14T07:37:09;5.43;;;2.70;;
74328;SDS011;62745;51.060;13.786;2023-06-14T07:39:34;7.57;;;2.67;;
74328;SDS011;62745;51.060;13.786;2023-06-14T07:41:59;5.40;;;2.88;;
74328;SDS011;62745;51.060;13.786;2023-06-14T07:44:24;6.33;;;2.90;;
74328;SDS011;62745;51.060;13.786;2023-06-14T07:46:51;6.38;;;2.92;;
74328;SDS011;62745;51.060;13.786;2023-06-14T07:49:16;4.60;;;2.43;;
74328;SDS011;62745;51.060;13.786;2023-06-14T07:51:41;4.50;;;2.27;;
74328;SDS011;62745;51.060;13.786;2023-06-14T07:54:08;5.85;;;3.10;;
74328;SDS011;62745;51.060;13.786;2023-06-14T07:56:33;4.80;;;2.95;;
74328;SDS011;62745;51.060;13.786;2023-06-14T07:58:58;5.57;;;3.13;;
74328;SDS011;62745;51.060;13.786;2023-06-14T08:01:24;5.77;;;2.47;;
74328;SDS011;62745;51.060;13.786;2023-06-14T08:03:50;4.30;;;2.20;;
74328;SDS011;62745;51.060;13.786;2023-06-14T08:06:16;4.40;;;2.23;;
74328;SDS011;62745;51.060;13.786;2023-06-14T08:08:41;5.90;;;2.33;;
74328;SDS011;62745;51.060;13.786;2023-06-14T08:11:06;4.80;;;2.40;;
74328;SDS011;62745;51.060;13.786;2023-06-14T08:13:31;3.33;;;1.83;;
74328;SDS011;62745;51.060;13.786;2023-06-14T08:15:57;4.63;;;2.10;;
74328;SDS011;62745;51.060;13.786;2023-06-14T08:18:23;4.88;;;2.25;;
74328;SDS011;62745;51.060;13.786;2023-06-14T08:20:48;5.03;;;1.98;;
74328;SDS011;62745;51.060;13.786;2023-06-14T08:23:15;4.97;;;2.92;;
74328;SDS011;62745;51.060;13.786;2023-06-14T08:25:43;3.65;;;1.88;;
74328;SDS011;62745;51.060;13.786;2023-06-14T08:28:09;4.95;;;1.67;;
74328;SDS011;62745;51.060;13.786;2023-06-14T08:30:34;5.10;;;2.00;;
74328;SDS011;62745;51.060;13.786;2023-06-14T08:33:00;3.45;;;1.85;;
74328;SDS011;62745;51.060;13.786;2023-06-14T08:35:26;4.75;;;1.90;;
74328;SDS011;62745;51.060;13.786;2023-06-14T08:37:51;6.33;;;2.07;;
74328;SDS011;62745;51.060;13.786;2023-06-14T08:40:20;4.87;;;2.10;;
74328;SDS011;62745;51.060;13.786;2023-06-14T08:42:50;8.75;;;2.10;;
74328;SDS011;62745;51.060;13.786;2023-06-14T08:45:17;4.88;;;1.80;;
74328;SDS011;62745;51.060;13.786;2023-06-14T08:47:43;3.53;;;1.83;;
74328;SDS011;62745;51.060;13.786;2023-06-14T08:50:10;3.95;;;2.13;;
74328;SDS011;62745;51.060;13.786;2023-06-14T08:52:38;4.78;;;1.95;;
74328;SDS011;62745;51.060;13.786;2023-06-14T08:55:06;4.47;;;2.08;;
74328;SDS011;62745;51.060;13.786;2023-06-14T08:57:33;5.30;;;2.30;;
74328;SDS011;62745;51.060;13.786;2023-06-14T09:00:02;4.40;;;2.17;;
74328;SDS011;62745;51.060;13.786;2023-06-14T09:02:36;3.90;;;1.90;;
74328;SDS011;62745;51.060;13.786;2023-06-14T09:05:02;4.43;;;2.40;;
74328;SDS011;62745;51.060;13.786;2023-06-14T09:07:28;4.65;;;2.30;;
74328;SDS011;62745;51.060;13.786;2023-06-14T09:10:13;4.78;;;2.05;;
74328;SDS011;62745;51.060;13.786;2023-06-14T09:12:40;4.60;;;2.40;;
74328;SDS011;62745;51.060;13.786;2023-06-14T09:15:05;4.15;;;2.08;;
74328;SDS011;62745;51.060;13.786;2023-06-14T09:17:33;5.18;;;2.33;;
74328;SDS011;62745;51.060;13.786;2023-06-14T09:20:03;6.05;;;2.42;;
74328;SDS011;62745;51.060;13.786;2023-06-14T09:22:31;5.03;;;2.28;;
74328;SDS011;62745;51.060;13.786;2023-06-14T09:24:59;5.68;;;2.33;;
74328;SDS011;62745;51.060;13.786;2023-06-14T09:27:25;5.85;;;2.53;;
74328;SDS011;62745;51.060;13.786;2023-06-14T09:29:51;4.43;;;2.22;;
74328;SDS011;62745;51.060;13.786;2023-06-14T09:32:17;4.28;;;2.30;;
74328;SDS011;62745;51.060;13.786;2023-06-14T09:34:42;4.13;;;2.10;;
74328;SDS011;62745;51.060;13.786;2023-06-14T09:37:07;5.17;;;3.00;;
74328;SDS011;62745;51.060;13.786;2023-06-14T09:39:33;5.32;;;3.03;;
74328;SDS011;62745;51.060;13.786;2023-06-14T09:41:58;4.60;;;2.93;;
74328;SDS011;62745;51.060;13.786;2023-06-14T09:44:23;5.97;;;3.07;;
74328;SDS011;62745;51.060;13.786;2023-06-14T09:49:20;4.22;;;2.28;;
74328;SDS011;62745;51.060;13.786;2023-06-14T09:51:45;4.67;;;2.40;;
74328;SDS011;62745;51.060;13.786;2023-06-14T09:54:16;4.50;;;2.15;;
74328;SDS011;62745;51.060;13.786;2023-06-14T09:56:44;4.32;;;2.17;;
74328;SDS011;62745;51.060;13.786;2023-06-14T09:59:10;5.35;;;2.33;;
74328;SDS011;62745;51.060;13.786;2023-06-14T10:01:43;3.80;;;2.03;;
74328;SDS011;62745;51.060;13.786;2023-06-14T10:04:10;5.72;;;2.40;;
74328;SDS011;62745;51.060;13.786;2023-06-14T10:06:37;5.18;;;2.20;;
74328;SDS011;62745;51.060;13.786;2023-06-14T10:09:07;5.82;;;2.03;;
74328;SDS011;62745;51.060;13.786;2023-06-14T10:11:33;4.00;;;1.95;;
74328;SDS011;62745;51.060;13.786;2023-06-14T10:14:00;4.95;;;2.00;;
74328;SDS011;62745;51.060;13.786;2023-06-14T10:16:31;3.75;;;1.90;;
74328;SDS011;62745;51.060;13.786;2023-06-14T10:24:32;4.00;;;1.95;;
74328;SDS011;62745;51.060;13.786;2023-06-14T10:27:07;4.30;;;2.20;;
74328;SDS011;62745;51.060;13.786;2023-06-14T10:32:20;4.75;;;2.10;;
74328;SDS011;62745;51.060;13.786;2023-06-14T10:34:45;4.20;;;2.25;;
74328;SDS011;62745;51.060;13.786;2023-06-14T10:37:19;3.72;;;1.85;;
74328;SDS011;62745;51.060;13.786;2023-06-14T10:39:44;7.40;;;2.60;;
74328;SDS011;62745;51.060;13.786;2023-06-14T10:42:11;7.72;;;2.00;;
74328;SDS011;62745;51.060;13.786;2023-06-14T10:44:38;4.60;;;2.42;;
74328;SDS011;62745;51.060;13.786;2023-06-14T10:47:38;4.32;;;2.10;;
74328;SDS011;62745;51.060;13.786;2023-06-14T10:50:04;4.55;;;2.35;;
74328;SDS011;62745;51.060;13.786;2023-06-14T10:52:32;4.55;;;1.92;;
74328;SDS011;62745;51.060;13.786;2023-06-14T10:55:16;5.00;;;2.60;;
74328;SDS011;62745;51.060;13.786;2023-06-14T11:00:24;5.05;;;2.38;;
74328;SDS011;62745;51.060;13.786;2023-06-14T11:02:53;5.15;;;2.50;;
74328;SDS011;62745;51.060;13.786;2023-06-14T11:05:50;4.82;;;2.10;;
74328;SDS011;62745;51.060;13.786;2023-06-14T11:11:17;5.07;;;2.63;;
74328;SDS011;62745;51.060;13.786;2023-06-14T11:13:46;4.68;;;2.83;;
74328;SDS011;62745;51.060;13.786;2023-06-14T11:18:41;6.35;;;2.38;;
74328;SDS011;62745;51.060;13.786;2023-06-14T11:21:07;3.95;;;2.17;;
74328;SDS011;62745;51.060;13.786;2023-06-14T11:23:33;6.70;;;2.72;;
74328;SDS011;62745;51.060;13.786;2023-06-14T11:25:59;6.00;;;2.85;;
74328;SDS011;62745;51.060;13.786;2023-06-14T11:28:24;5.07;;;2.90;;
74328;SDS011;62745;51.060;13.786;2023-06-14T11:31:02;5.97;;;3.20;;
74328;SDS011;62745;51.060;13.786;2023-06-14T11:33:28;5.10;;;2.50;;
74328;SDS011;62745;51.060;13.786;2023-06-14T11:35:53;7.53;;;2.58;;
74328;SDS011;62745;51.060;13.786;2023-06-14T11:38:19;9.15;;;2.60;;
74328;SDS011;62745;51.060;13.786;2023-06-14T11:40:44;5.95;;;2.28;;
74328;SDS011;62745;51.060;13.786;2023-06-14T11:43:09;7.07;;;2.70;;
74328;SDS011;62745;51.060;13.786;2023-06-14T11:45:35;5.50;;;2.40;;
74328;SDS011;62745;51.060;13.786;2023-06-14T11:48:00;6.38;;;2.92;;
74328;SDS011;62745;51.060;13.786;2023-06-14T11:50:26;6.10;;;3.17;;
74328;SDS011;62745;51.060;13.786;2023-06-14T11:52:53;4.85;;;2.60;;
74328;SDS011;62745;51.060;13.786;2023-06-14T11:55:20;4.75;;;2.80;;
74328;SDS011;62745;51.060;13.786;2023-06-14T11:57:46;7.18;;;2.60;;
74328;SDS011;62745;51.060;13.786;2023-06-14T12:00:12;6.50;;;2.53;;
74328;SDS011;62745;51.060;13.786;2023-06-14T12:02:38;4.40;;;2.67;;
74328;SDS011;62745;51.060;13.786;2023-06-14T12:05:06;5.82;;;2.17;;
74328;SDS011;62745;51.060;13.786;2023-06-14T12:07:38;5.32;;;3.20;;
74328;SDS011;62745;51.060;13.786;2023-06-14T12:10:07;4.70;;;2.40;;
74328;SDS011;62745;51.060;13.786;2023-06-14T12:12:36;4.72;;;2.60;;
74328;SDS011;62745;51.060;13.786;2023-06-14T12:15:04;5.10;;;2.40;;
74328;SDS011;62745;51.060;13.786;2023-06-14T12:17:34;10.05;;;2.40;;
74328;SDS011;62745;51.060;13.786;2023-06-14T12:20:13;5.20;;;2.75;;
74328;SDS011;62745;51.060;13.786;2023-06-14T12:22:53;6.32;;;2.72;;
74328;SDS011;62745;51.060;13.786;2023-06-14T12:25:27;4.93;;;2.80;;
74328;SDS011;62745;51.060;13.786;2023-06-14T12:27:56;6.57;;;2.88;;
74328;SDS011;62745;51.060;13.786;2023-06-14T12:30:22;5.03;;;2.38;;
74328;SDS011;62745;51.060;13.786;2023-06-14T12:32:47;4.63;;;2.40;;
74328;SDS011;62745;51.060;13.786;2023-06-14T12:35:13;15.50;;;2.72;;
74328;SDS011;62745;51.060;13.786;2023-06-14T12:37:38;4.35;;;2.72;;
74328;SDS011;62745;51.060;13.786;2023-06-14T12:40:04;7.25;;;2.90;;
74328;SDS011;62745;51.060;13.786;2023-06-14T12:42:30;5.32;;;2.50;;
74328;SDS011;62745;51.060;13.786;2023-06-14T12:44:56;6.85;;;2.50;;
74328;SDS011;62745;51.060;13.786;2023-06-14T12:47:21;5.60;;;2.57;;
74328;SDS011;62745;51.060;13.786;2023-06-14T12:49:46;4.63;;;2.30;;
74328;SDS011;62745;51.060;13.786;2023-06-14T12:52:12;5.50;;;3.07;;
74328;SDS011;62745;51.060;13.786;2023-06-14T12:54:37;6.63;;;2.77;;
74328;SDS011;62745;51.060;13.786;2023-06-14T12:57:04;4.57;;;2.65;;
74328;SDS011;62745;51.060;13.786;2023-06-14T12:59:29;4.53;;;2.47;;
74328;SDS011;62745;51.060;13.786;2023-06-14T13:01:57;4.43;;;2.58;;
74328;SDS011;62745;51.060;13.786;2023-06-14T13:04:23;5.75;;;2.53;;
74328;SDS011;62745;51.060;13.786;2023-06-14T13:06:49;5.20;;;2.30;;
74328;SDS011;62745;51.060;13.786;2023-06-14T13:09:14;4.38;;;2.15;;
74328;SDS011;62745;51.060;13.786;2023-06-14T13:11:40;5.25;;;2.60;;
74328;SDS011;62745;51.060;13.786;2023-06-14T13:14:05;5.28;;;2.85;;
74328;SDS011;62745;51.060;13.786;2023-06-14T13:16:31;4.57;;;2.37;;
74328;SDS011;62745;51.060;13.786;2023-06-14T13:18:56;5.50;;;2.17;;
74328;SDS011;62745;51.060;13.786;2023-06-14T13:21:21;8.40;;;2.30;;
74328;SDS011;62745;51.060;13.786;2023-06-14T13:23:47;4.03;;;2.33;;
74328;SDS011;62745;51.060;13.786;2023-06-14T13:26:12;4.23;;;2.13;;
74328;SDS011;62745;51.060;13.786;2023-06-14T13:28:37;5.75;;;3.00;;
74328;SDS011;62745;51.060;13.786;2023-06-14T13:31:02;5.87;;;2.70;;
74328;SDS011;62745;51.060;13.786;2023-06-14T13:33:28;4.95;;;2.15;;
74328;SDS011;62745;51.060;13.786;2023-06-14T13:35:53;4.63;;;2.50;;
74328;SDS011;62745;51.060;13.786;2023-06-14T13:38:18;4.87;;;2.67;;
74328;SDS011;62745;51.060;13.786;2023-06-14T13:40:44;6.93;;;2.50;;
74328;SDS011;62745;51.060;13.786;2023-06-14T13:43:09;5.20;;;2.20;;
74328;SDS011;62745;51.060;13.786;2023-06-14T13:45:35;4.95;;;2.50;;
74328;SDS011;62745;51.060;13.786;2023-06-14T13:48:00;4.80;;;2.20;;
74328;SDS011;62745;51.060;13.786;2023-06-14T13:50:25;5.30;;;2.47;;
74328;SDS011;62745;51.060;13.786;2023-06-14T13:52:51;5.10;;;2.10;;
74328;SDS011;62745;51.060;13.786;2023-06-14T13:55:16;5.13;;;2.20;;
74328;SDS011;62745;51.060;13.786;2023-06-14T13:57:41;4.82;;;2.17;;
74328;SDS011;62745;51.060;13.786;2023-06-14T14:00:07;4.78;;;2.17;;
74328;SDS011;62745;51.060;13.786;2023-06-14T14:02:34;7.78;;;2.28;;
74328;SDS011;62745;51.060;13.786;2023-06-14T14:04:59;4.30;;;2.20;;
74328;SDS011;62745;51.060;13.786;2023-06-14T14:07:25;4.78;;;2.22;;
74328;SDS011;62745;51.060;13.786;2023-06-14T14:09:50;4.05;;;2.33;;
74328;SDS011;62745;51.060;13.786;2023-06-14T14:12:16;3.77;;;2.20;;
74328;SDS011;62745;51.060;13.786;2023-06-14T14:14:41;6.95;;;2.88;;
74328;SDS011;62745;51.060;13.786;2023-06-14T14:17:06;4.78;;;2.20;;
74328;SDS011;62745;51.060;13.786;2023-06-14T14:19:32;4.23;;;1.87;;
74328;SDS011;62745;51.060;13.786;2023-06-14T14:21:57;4.82;;;2.00;;
74328;SDS011;62745;51.060;13.786;2023-06-14T14:24:22;5.23;;;1.90;;
74328;SDS011;62745;51.060;13.786;2023-06-14T14:26:48;3.67;;;1.83;;
74328;SDS011;62745;51.060;13.786;2023-06-14T14:29:14;5.13;;;1.70;;
74328;SDS011;62745;51.060;13.786;2023-06-14T14:31:40;4.38;;;2.08;;
74328;SDS011;62745;51.060;13.786;2023-06-14T14:34:05;4.00;;;2.20;;
74328;SDS011;62745;51.060;13.786;2023-06-14T14:36:30;5.68;;;2.15;;
74328;SDS011;62745;51.060;13.786;2023-06-14T14:38:56;4.35;;;2.10;;
74328;SDS011;62745;51.060;13.786;2023-06-14T14:41:21;3.50;;;1.90;;
74328;SDS011;62745;51.060;13.786;2023-06-14T14:43:46;4.43;;;2.08;;
74328;SDS011;62745;51.060;13.786;2023-06-14T14:46:12;3.92;;;1.95;;
74328;SDS011;62745;51.060;13.786;2023-06-14T14:48:37;3.97;;;2.20;;